sensor_id;sensor_type;location;lat;lon;timestamp;P1;durP1;ratioP1;P2;durP2;ratioP2
37151;SDS011;23046;50.112;8.952;2023-02-08T00:00:08;8.13;;;5.20;;
37151;SDS011;23046;50.112;8.952;2023-02-08T00:00:18;7.57;;;5.20;;
37151;SDS011;23046;50.112;8.952;2023-02-08T00:00:29;7.85;;;5.45;;
37151;SDS011;23046;50.112;8.952;2023-02-08T00:00:39;7.87;;;5.40;;
37151;SDS011;23046;50.112;8.952;2023-02-08T00:00:49;7.93;;;5.30;;
37151;SDS011;23046;50.112;8.952;2023-02-08T00:01:00;7.47;;;4.97;;
37151;SDS011;23046;50.112;8.952;2023-02-08T00:01:16;8.00;;;5.07;;
37151;SDS011;23046;50.112;8.952;2023-02-08T00:01:26;7.93;;;5.15;;
37151;SDS011;23046;50.112;8.952;2023-02-08T00:01:36;8.43;;;5.38;;
37151;SDS011;23046;50.112;8.952;2023-02-08T00:01:47;7.85;;;5.40;;
37151;SDS011;23046;50.112;8.952;2023-02-08T00:01:57;7.93;;;5.37;;
37151;SDS011;23046;50.112;8.952;2023-02-08T00:02:07;9.13;;;5.40;;
37151;SDS011;23046;50.112;8.952;2023-02-08T00:02:17;10.25;;;5.60;;
37151;SDS011;23046;50.112;8.952;2023-02-08T00:02:28;9.60;;;5.50;;
37151;SDS011;23046;50.112;8.952;2023-02-08T00:02:38;8.13;;;5.33;;
37151;SDS011;23046;50.112;8.952;2023-02-08T00:02:48;7.63;;;5.30;;
37151;SDS011;23046;50.112;8.952;2023-02-08T00:02:59;8.40;;;5.35;;
37151;SDS011;23046;50.112;8.952;2023-02-08T00:03:09;8.63;;;5.50;;
37151;SDS011;23046;50.112;8.952;2023-02-08T00:03:19;8.40;;;5.50;;
37151;SDS011;23046;50.112;8.952;2023-02-08T00:03:29;8.27;;;5.43;;
37151;SDS011;23046;50.112;8.952;2023-02-08T00:03:39;8.45;;;5.25;;
37151;SDS011;23046;50.112;8.952;2023-02-08T00:03:50;8.70;;;5.40;;
37151;SDS011;23046;50.112;8.952;2023-02-08T00:04:00;8.90;;;5.30;;
37151;SDS011;23046;50.112;8.952;2023-02-08T00:04:10;9.82;;;5.43;;
37151;SDS011;23046;50.112;8.952;2023-02-08T00:04:21;10.30;;;5.50;;
37151;SDS011;23046;50.112;8.952;2023-02-08T00:04:31;9.77;;;5.50;;
37151;SDS011;23046;50.112;8.952;2023-02-08T00:04:41;9.27;;;5.63;;
37151;SDS011;23046;50.112;8.952;2023-02-08T00:04:51;8.90;;;5.50;;
37151;SDS011;23046;50.112;8.952;2023-02-08T00:05:01;8.10;;;5.40;;
37151;SDS011;23046;50.112;8.952;2023-02-08T00:05:12;7.47;;;5.07;;
37151;SDS011;23046;50.112;8.952;2023-02-08T00:05:22;7.10;;;4.97;;
37151;SDS011;23046;50.112;8.952;2023-02-08T00:05:32;7.20;;;4.87;;
37151;SDS011;23046;50.112;8.952;2023-02-08T00:05:42;8.00;;;4.90;;
37151;SDS011;23046;50.112;8.952;2023-02-08T00:05:53;8.30;;;4.80;;
37151;SDS011;23046;50.112;8.952;2023-02-08T00:06:03;10.33;;;5.37;;
37151;SDS011;23046;50.112;8.952;2023-02-08T00:06:14;10.07;;;5.60;;
37151;SDS011;23046;50.112;8.952;2023-02-08T00:06:25;9.57;;;5.57;;
37151;SDS011;23046;50.112;8.952;2023-02-08T00:06:35;8.53;;;5.20;;
37151;SDS011;23046;50.112;8.952;2023-02-08T00:06:45;8.60;;;5.33;;
37151;SDS011;23046;50.112;8.952;2023-02-08T00:06:55;8.70;;;5.50;;
37151;SDS011;23046;50.112;8.952;2023-02-08T00:07:05;8.30;;;5.37;;
37151;SDS011;23046;50.112;8.952;2023-02-08T00:07:16;9.00;;;5.32;;
37151;SDS011;23046;50.112;8.952;2023-02-08T00:07:26;9.73;;;5.53;;
37151;SDS011;23046;50.112;8.952;2023-02-08T00:07:36;10.97;;;5.80;;
37151;SDS011;23046;50.112;8.952;2023-02-08T00:07:46;9.57;;;5.73;;
37151;SDS011;23046;50.112;8.952;2023-02-08T00:07:56;9.03;;;5.60;;
37151;SDS011;23046;50.112;8.952;2023-02-08T00:08:07;8.40;;;5.40;;
37151;SDS011;23046;50.112;8.952;2023-02-08T00:08:17;9.63;;;5.67;;
37151;SDS011;23046;50.112;8.952;2023-02-08T00:08:27;9.47;;;5.43;;
37151;SDS011;23046;50.112;8.952;2023-02-08T00:08:37;11.90;;;5.30;;
37151;SDS011;23046;50.112;8.952;2023-02-08T00:08:48;11.32;;;5.07;;
37151;SDS011;23046;50.112;8.952;2023-02-08T00:08:58;11.40;;;5.43;;
37151;SDS011;23046;50.112;8.952;2023-02-08T00:09:10;9.30;;;5.57;;
37151;SDS011;23046;50.112;8.952;2023-02-08T00:09:21;8.60;;;5.38;;
37151;SDS011;23046;50.112;8.952;2023-02-08T00:09:31;8.60;;;5.20;;
37151;SDS011;23046;50.112;8.952;2023-02-08T00:09:41;8.60;;;5.23;;
37151;SDS011;23046;50.112;8.952;2023-02-08T00:09:51;10.10;;;5.60;;
37151;SDS011;23046;50.112;8.952;2023-02-08T00:10:01;10.47;;;5.83;;
37151;SDS011;23046;50.112;8.952;2023-02-08T00:10:14;10.65;;;5.90;;
37151;SDS011;23046;50.112;8.952;2023-02-08T00:10:24;9.80;;;5.77;;
37151;SDS011;23046;50.112;8.952;2023-02-08T00:10:34;12.37;;;5.80;;
37151;SDS011;23046;50.112;8.952;2023-02-08T00:10:44;12.43;;;5.80;;
37151;SDS011;23046;50.112;8.952;2023-02-08T00:10:54;11.53;;;5.60;;
37151;SDS011;23046;50.112;8.952;2023-02-08T00:11:05;8.50;;;5.55;;
37151;SDS011;23046;50.112;8.952;2023-02-08T00:11:15;8.67;;;5.57;;
37151;SDS011;23046;50.112;8.952;2023-02-08T00:11:26;10.10;;;5.50;;
37151;SDS011;23046;50.112;8.952;2023-02-08T00:11:36;12.57;;;5.67;;
37151;SDS011;23046;50.112;8.952;2023-02-08T00:11:46;12.03;;;5.70;;
37151;SDS011;23046;50.112;8.952;2023-02-08T00:11:56;11.40;;;5.77;;
37151;SDS011;23046;50.112;8.952;2023-02-08T00:12:06;10.43;;;5.83;;
37151;SDS011;23046;50.112;8.952;2023-02-08T00:12:17;10.65;;;5.90;;
37151;SDS011;23046;50.112;8.952;2023-02-08T00:12:27;9.65;;;5.88;;
37151;SDS011;23046;50.112;8.952;2023-02-08T00:12:37;8.70;;;6.00;;
37151;SDS011;23046;50.112;8.952;2023-02-08T00:12:47;8.73;;;5.90;;
37151;SDS011;23046;50.112;8.952;2023-02-08T00:12:57;10.07;;;5.97;;
37151;SDS011;23046;50.112;8.952;2023-02-08T00:13:08;10.63;;;5.73;;
37151;SDS011;23046;50.112;8.952;2023-02-08T00:13:18;10.90;;;5.70;;
37151;SDS011;23046;50.112;8.952;2023-02-08T00:13:29;10.30;;;5.67;;
37151;SDS011;23046;50.112;8.952;2023-02-08T00:13:39;11.18;;;5.78;;
37151;SDS011;23046;50.112;8.952;2023-02-08T00:13:50;11.00;;;5.85;;
37151;SDS011;23046;50.112;8.952;2023-02-08T00:14:00;11.57;;;5.90;;
37151;SDS011;23046;50.112;8.952;2023-02-08T00:14:10;10.73;;;5.73;;
37151;SDS011;23046;50.112;8.952;2023-02-08T00:14:20;11.70;;;5.87;;
37151;SDS011;23046;50.112;8.952;2023-02-08T00:14:31;11.87;;;5.90;;
37151;SDS011;23046;50.112;8.952;2023-02-08T00:14:41;10.68;;;5.85;;
37151;SDS011;23046;50.112;8.952;2023-02-08T00:14:51;8.63;;;5.57;;
37151;SDS011;23046;50.112;8.952;2023-02-08T00:15:01;8.10;;;5.50;;
37151;SDS011;23046;50.112;8.952;2023-02-08T00:15:11;9.30;;;5.63;;
37151;SDS011;23046;50.112;8.952;2023-02-08T00:15:22;10.02;;;5.72;;
37151;SDS011;23046;50.112;8.952;2023-02-08T00:15:32;10.43;;;5.60;;
37151;SDS011;23046;50.112;8.952;2023-02-08T00:15:43;9.00;;;5.60;;
37151;SDS011;23046;50.112;8.952;2023-02-08T00:15:54;9.43;;;5.60;;
37151;SDS011;23046;50.112;8.952;2023-02-08T00:16:04;10.25;;;6.10;;
37151;SDS011;23046;50.112;8.952;2023-02-08T00:16:14;11.70;;;5.90;;
37151;SDS011;23046;50.112;8.952;2023-02-08T00:16:25;11.47;;;5.90;;
37151;SDS011;23046;50.112;8.952;2023-02-08T00:16:35;11.30;;;5.57;;
37151;SDS011;23046;50.112;8.952;2023-02-08T00:16:45;10.93;;;5.75;;
37151;SDS011;23046;50.112;8.952;2023-02-08T00:16:55;10.87;;;5.97;;
37151;SDS011;23046;50.112;8.952;2023-02-08T00:17:05;11.00;;;6.20;;
37151;SDS011;23046;50.112;8.952;2023-02-08T00:17:16;11.73;;;6.40;;
37151;SDS011;23046;50.112;8.952;2023-02-08T00:17:26;11.10;;;6.40;;
37151;SDS011;23046;50.112;8.952;2023-02-08T00:17:36;9.95;;;6.15;;
37151;SDS011;23046;50.112;8.952;2023-02-08T00:17:46;10.10;;;5.90;;
37151;SDS011;23046;50.112;8.952;2023-02-08T00:17:56;11.53;;;5.77;;
37151;SDS011;23046;50.112;8.952;2023-02-08T00:18:06;14.23;;;6.20;;
37151;SDS011;23046;50.112;8.952;2023-02-08T00:18:17;14.43;;;6.40;;
37151;SDS011;23046;50.112;8.952;2023-02-08T00:18:27;13.75;;;6.72;;
37151;SDS011;23046;50.112;8.952;2023-02-08T00:18:37;13.27;;;6.40;;
37151;SDS011;23046;50.112;8.952;2023-02-08T00:18:47;12.43;;;6.40;;
37151;SDS011;23046;50.112;8.952;2023-02-08T00:18:58;13.13;;;6.37;;
37151;SDS011;23046;50.112;8.952;2023-02-08T00:19:08;12.57;;;6.53;;
37151;SDS011;23046;50.112;8.952;2023-02-08T00:19:18;12.03;;;6.43;;
37151;SDS011;23046;50.112;8.952;2023-02-08T00:19:28;12.37;;;6.40;;
37151;SDS011;23046;50.112;8.952;2023-02-08T00:19:39;12.03;;;6.40;;
37151;SDS011;23046;50.112;8.952;2023-02-08T00:19:49;13.00;;;6.40;;
37151;SDS011;23046;50.112;8.952;2023-02-08T00:19:59;14.00;;;6.53;;
37151;SDS011;23046;50.112;8.952;2023-02-08T00:20:09;15.13;;;6.70;;
37151;SDS011;23046;50.112;8.952;2023-02-08T00:20:20;15.63;;;6.67;;
37151;SDS011;23046;50.112;8.952;2023-02-08T00:20:30;13.60;;;6.35;;
37151;SDS011;23046;50.112;8.952;2023-02-08T00:20:41;12.63;;;6.03;;
37151;SDS011;23046;50.112;8.952;2023-02-08T00:20:51;12.25;;;5.95;;
37151;SDS011;23046;50.112;8.952;2023-02-08T00:21:05;12.33;;;5.90;;
37151;SDS011;23046;50.112;8.952;2023-02-08T00:21:16;13.85;;;6.22;;
37151;SDS011;23046;50.112;8.952;2023-02-08T00:21:26;13.25;;;6.50;;
37151;SDS011;23046;50.112;8.952;2023-02-08T00:21:36;11.90;;;6.47;;
37151;SDS011;23046;50.112;8.952;2023-02-08T00:21:47;9.80;;;6.07;;
37151;SDS011;23046;50.112;8.952;2023-02-08T00:21:57;10.97;;;6.37;;
37151;SDS011;23046;50.112;8.952;2023-02-08T00:22:07;11.27;;;6.32;;
37151;SDS011;23046;50.112;8.952;2023-02-08T00:22:17;12.13;;;6.50;;
37151;SDS011;23046;50.112;8.952;2023-02-08T00:22:27;11.23;;;6.07;;
37151;SDS011;23046;50.112;8.952;2023-02-08T00:22:38;11.77;;;6.17;;
37151;SDS011;23046;50.112;8.952;2023-02-08T00:22:48;11.88;;;6.18;;
37151;SDS011;23046;50.112;8.952;2023-02-08T00:22:58;12.20;;;6.10;;
37151;SDS011;23046;50.112;8.952;2023-02-08T00:23:09;12.43;;;6.10;;
37151;SDS011;23046;50.112;8.952;2023-02-08T00:23:19;10.52;;;5.80;;
37151;SDS011;23046;50.112;8.952;2023-02-08T00:23:29;11.80;;;6.20;;
37151;SDS011;23046;50.112;8.952;2023-02-08T00:23:39;11.77;;;6.13;;
37151;SDS011;23046;50.112;8.952;2023-02-08T00:23:50;12.67;;;6.37;;
37151;SDS011;23046;50.112;8.952;2023-02-08T00:24:00;11.43;;;6.27;;
37151;SDS011;23046;50.112;8.952;2023-02-08T00:24:10;12.43;;;6.60;;
37151;SDS011;23046;50.112;8.952;2023-02-08T00:24:20;13.02;;;6.97;;
37151;SDS011;23046;50.112;8.952;2023-02-08T00:24:30;12.50;;;6.73;;
37151;SDS011;23046;50.112;8.952;2023-02-08T00:24:40;13.30;;;6.53;;
37151;SDS011;23046;50.112;8.952;2023-02-08T00:24:51;12.93;;;6.50;;
37151;SDS011;23046;50.112;8.952;2023-02-08T00:25:01;13.70;;;6.70;;
37151;SDS011;23046;50.112;8.952;2023-02-08T00:25:11;12.50;;;6.90;;
37151;SDS011;23046;50.112;8.952;2023-02-08T00:25:22;14.33;;;6.93;;
37151;SDS011;23046;50.112;8.952;2023-02-08T00:25:32;14.33;;;6.83;;
37151;SDS011;23046;50.112;8.952;2023-02-08T00:25:42;14.48;;;6.88;;
37151;SDS011;23046;50.112;8.952;2023-02-08T00:25:53;14.47;;;7.00;;
37151;SDS011;23046;50.112;8.952;2023-02-08T00:26:03;14.80;;;7.00;;
37151;SDS011;23046;50.112;8.952;2023-02-08T00:26:14;13.73;;;6.95;;
37151;SDS011;23046;50.112;8.952;2023-02-08T00:26:25;14.02;;;7.05;;
37151;SDS011;23046;50.112;8.952;2023-02-08T00:26:35;15.47;;;7.50;;
37151;SDS011;23046;50.112;8.952;2023-02-08T00:26:46;16.73;;;7.80;;
37151;SDS011;23046;50.112;8.952;2023-02-08T00:26:56;15.60;;;7.40;;
37151;SDS011;23046;50.112;8.952;2023-02-08T00:27:06;15.73;;;6.90;;
37151;SDS011;23046;50.112;8.952;2023-02-08T00:27:17;14.97;;;6.73;;
37151;SDS011;23046;50.112;8.952;2023-02-08T00:27:27;15.87;;;6.87;;
37151;SDS011;23046;50.112;8.952;2023-02-08T00:27:37;13.52;;;6.75;;
37151;SDS011;23046;50.112;8.952;2023-02-08T00:27:47;12.60;;;6.37;;
37151;SDS011;23046;50.112;8.952;2023-02-08T00:27:58;10.83;;;6.10;;
37151;SDS011;23046;50.112;8.952;2023-02-08T00:28:11;11.67;;;5.83;;
37151;SDS011;23046;50.112;8.952;2023-02-08T00:28:21;15.18;;;6.28;;
37151;SDS011;23046;50.112;8.952;2023-02-08T00:28:31;15.47;;;6.70;;
37151;SDS011;23046;50.112;8.952;2023-02-08T00:28:42;14.43;;;7.00;;
37151;SDS011;23046;50.112;8.952;2023-02-08T00:28:52;14.60;;;7.23;;
37151;SDS011;23046;50.112;8.952;2023-02-08T00:29:02;15.23;;;7.43;;
37151;SDS011;23046;50.112;8.952;2023-02-08T00:29:12;16.92;;;7.72;;
37151;SDS011;23046;50.112;8.952;2023-02-08T00:29:23;16.67;;;7.77;;
37151;SDS011;23046;50.112;8.952;2023-02-08T00:29:33;17.13;;;7.87;;
37151;SDS011;23046;50.112;8.952;2023-02-08T00:29:43;16.63;;;7.80;;
37151;SDS011;23046;50.112;8.952;2023-02-08T00:29:53;17.35;;;7.95;;
37151;SDS011;23046;50.112;8.952;2023-02-08T00:30:04;18.07;;;7.83;;
37151;SDS011;23046;50.112;8.952;2023-02-08T00:30:14;17.47;;;7.80;;
37151;SDS011;23046;50.112;8.952;2023-02-08T00:30:24;17.98;;;7.65;;
37151;SDS011;23046;50.112;8.952;2023-02-08T00:30:34;17.27;;;7.73;;
37151;SDS011;23046;50.112;8.952;2023-02-08T00:30:45;16.73;;;7.40;;
37151;SDS011;23046;50.112;8.952;2023-02-08T00:30:55;15.37;;;7.30;;
37151;SDS011;23046;50.112;8.952;2023-02-08T00:31:05;14.27;;;7.03;;
37151;SDS011;23046;50.112;8.952;2023-02-08T00:31:16;12.80;;;6.78;;
37151;SDS011;23046;50.112;8.952;2023-02-08T00:31:26;12.30;;;6.57;;
37151;SDS011;23046;50.112;8.952;2023-02-08T00:31:36;14.75;;;7.00;;
37151;SDS011;23046;50.112;8.952;2023-02-08T00:31:47;16.38;;;7.25;;
37151;SDS011;23046;50.112;8.952;2023-02-08T00:31:58;15.35;;;7.30;;
37151;SDS011;23046;50.112;8.952;2023-02-08T00:32:09;15.07;;;6.87;;
37151;SDS011;23046;50.112;8.952;2023-02-08T00:32:19;14.60;;;6.90;;
37151;SDS011;23046;50.112;8.952;2023-02-08T00:32:29;14.57;;;7.10;;
37151;SDS011;23046;50.112;8.952;2023-02-08T00:32:40;14.20;;;7.40;;
37151;SDS011;23046;50.112;8.952;2023-02-08T00:32:50;16.47;;;7.43;;
37151;SDS011;23046;50.112;8.952;2023-02-08T00:33:01;16.15;;;7.40;;
37151;SDS011;23046;50.112;8.952;2023-02-08T00:33:11;16.70;;;7.45;;
37151;SDS011;23046;50.112;8.952;2023-02-08T00:33:22;15.57;;;7.30;;
37151;SDS011;23046;50.112;8.952;2023-02-08T00:33:32;17.07;;;7.60;;
37151;SDS011;23046;50.112;8.952;2023-02-08T00:33:42;16.67;;;7.50;;
37151;SDS011;23046;50.112;8.952;2023-02-08T00:33:52;15.90;;;7.45;;
37151;SDS011;23046;50.112;8.952;2023-02-08T00:34:02;16.23;;;7.40;;
37151;SDS011;23046;50.112;8.952;2023-02-08T00:34:13;15.20;;;7.33;;
37151;SDS011;23046;50.112;8.952;2023-02-08T00:34:23;15.37;;;7.23;;
37151;SDS011;23046;50.112;8.952;2023-02-08T00:34:34;15.43;;;7.30;;
37151;SDS011;23046;50.112;8.952;2023-02-08T00:34:44;17.03;;;7.60;;
37151;SDS011;23046;50.112;8.952;2023-02-08T00:34:54;17.88;;;7.72;;
37151;SDS011;23046;50.112;8.952;2023-02-08T00:35:05;19.03;;;7.80;;
37151;SDS011;23046;50.112;8.952;2023-02-08T00:35:15;19.50;;;7.67;;
37151;SDS011;23046;50.112;8.952;2023-02-08T00:35:25;18.20;;;7.80;;
37151;SDS011;23046;50.112;8.952;2023-02-08T00:35:36;17.42;;;7.82;;
37151;SDS011;23046;50.112;8.952;2023-02-08T00:35:46;18.57;;;7.80;;
37151;SDS011;23046;50.112;8.952;2023-02-08T00:35:59;18.03;;;7.57;;
37151;SDS011;23046;50.112;8.952;2023-02-08T00:36:10;16.15;;;7.32;;
37151;SDS011;23046;50.112;8.952;2023-02-08T00:36:21;16.20;;;7.10;;
37151;SDS011;23046;50.112;8.952;2023-02-08T00:36:31;16.77;;;6.97;;
37151;SDS011;23046;50.112;8.952;2023-02-08T00:36:41;16.47;;;7.00;;
37151;SDS011;23046;50.112;8.952;2023-02-08T00:36:51;14.63;;;7.15;;
37151;SDS011;23046;50.112;8.952;2023-02-08T00:37:02;15.00;;;7.13;;
37151;SDS011;23046;50.112;8.952;2023-02-08T00:37:12;15.90;;;7.20;;
37151;SDS011;23046;50.112;8.952;2023-02-08T00:37:22;18.60;;;7.23;;
37151;SDS011;23046;50.112;8.952;2023-02-08T00:37:32;16.88;;;7.38;;
37151;SDS011;23046;50.112;8.952;2023-02-08T00:37:43;16.53;;;7.50;;
37151;SDS011;23046;50.112;8.952;2023-02-08T00:37:53;14.67;;;7.30;;
37151;SDS011;23046;50.112;8.952;2023-02-08T00:38:03;15.00;;;7.40;;
37151;SDS011;23046;50.112;8.952;2023-02-08T00:38:13;15.27;;;7.85;;
37151;SDS011;23046;50.112;8.952;2023-02-08T00:38:24;15.83;;;8.30;;
37151;SDS011;23046;50.112;8.952;2023-02-08T00:38:34;14.80;;;7.83;;
37151;SDS011;23046;50.112;8.952;2023-02-08T00:38:45;15.52;;;7.55;;
37151;SDS011;23046;50.112;8.952;2023-02-08T00:38:55;14.07;;;6.90;;
37151;SDS011;23046;50.112;8.952;2023-02-08T00:39:05;15.83;;;7.10;;
37151;SDS011;23046;50.112;8.952;2023-02-08T00:39:15;13.57;;;6.97;;
37151;SDS011;23046;50.112;8.952;2023-02-08T00:39:26;13.90;;;7.00;;
37151;SDS011;23046;50.112;8.952;2023-02-08T00:39:36;12.23;;;6.43;;
37151;SDS011;23046;50.112;8.952;2023-02-08T00:39:46;12.37;;;6.43;;
37151;SDS011;23046;50.112;8.952;2023-02-08T00:39:56;14.10;;;6.63;;
37151;SDS011;23046;50.112;8.952;2023-02-08T00:40:09;16.13;;;7.05;;
37151;SDS011;23046;50.112;8.952;2023-02-08T00:40:20;18.08;;;7.40;;
37151;SDS011;23046;50.112;8.952;2023-02-08T00:40:30;17.67;;;7.67;;
37151;SDS011;23046;50.112;8.952;2023-02-08T00:40:40;19.20;;;7.70;;
37151;SDS011;23046;50.112;8.952;2023-02-08T00:40:51;16.47;;;7.17;;
37151;SDS011;23046;50.112;8.952;2023-02-08T00:41:01;16.93;;;7.00;;
37151;SDS011;23046;50.112;8.952;2023-02-08T00:41:11;14.80;;;7.10;;
37151;SDS011;23046;50.112;8.952;2023-02-08T00:41:21;17.40;;;7.47;;
37151;SDS011;23046;50.112;8.952;2023-02-08T00:41:32;15.60;;;7.43;;
37151;SDS011;23046;50.112;8.952;2023-02-08T00:41:42;15.53;;;7.20;;
37151;SDS011;23046;50.112;8.952;2023-02-08T00:41:52;14.77;;;6.90;;
37151;SDS011;23046;50.112;8.952;2023-02-08T00:42:02;18.47;;;7.07;;
37151;SDS011;23046;50.112;8.952;2023-02-08T00:42:12;20.83;;;7.27;;
37151;SDS011;23046;50.112;8.952;2023-02-08T00:42:23;20.52;;;7.20;;
37151;SDS011;23046;50.112;8.952;2023-02-08T00:42:33;18.97;;;7.00;;
37151;SDS011;23046;50.112;8.952;2023-02-08T00:42:43;17.17;;;7.10;;
37151;SDS011;23046;50.112;8.952;2023-02-08T00:42:53;14.73;;;6.80;;
37151;SDS011;23046;50.112;8.952;2023-02-08T00:43:03;12.13;;;6.57;;
37151;SDS011;23046;50.112;8.952;2023-02-08T00:43:14;11.80;;;6.43;;
37151;SDS011;23046;50.112;8.952;2023-02-08T00:43:25;14.05;;;6.93;;
37151;SDS011;23046;50.112;8.952;2023-02-08T00:43:35;16.97;;;7.53;;
37151;SDS011;23046;50.112;8.952;2023-02-08T00:43:46;16.55;;;7.55;;
37151;SDS011;23046;50.112;8.952;2023-02-08T00:43:56;16.07;;;7.70;;
37151;SDS011;23046;50.112;8.952;2023-02-08T00:44:06;13.60;;;7.23;;
37151;SDS011;23046;50.112;8.952;2023-02-08T00:44:16;14.27;;;7.40;;
37151;SDS011;23046;50.112;8.952;2023-02-08T00:44:28;15.00;;;7.43;;
37151;SDS011;23046;50.112;8.952;2023-02-08T00:44:38;16.70;;;7.77;;
37151;SDS011;23046;50.112;8.952;2023-02-08T00:44:48;17.00;;;7.53;;
37151;SDS011;23046;50.112;8.952;2023-02-08T00:44:58;16.67;;;7.33;;
37151;SDS011;23046;50.112;8.952;2023-02-08T00:45:09;16.05;;;7.18;;
37151;SDS011;23046;50.112;8.952;2023-02-08T00:45:19;17.73;;;7.40;;
37151;SDS011;23046;50.112;8.952;2023-02-08T00:45:29;16.90;;;7.63;;
37151;SDS011;23046;50.112;8.952;2023-02-08T00:45:41;14.45;;;7.55;;
37151;SDS011;23046;50.112;8.952;2023-02-08T00:45:57;12.77;;;7.20;;
37151;SDS011;23046;50.112;8.952;2023-02-08T00:46:08;14.30;;;6.72;;
37151;SDS011;23046;50.112;8.952;2023-02-08T00:46:18;14.50;;;6.90;;
37151;SDS011;23046;50.112;8.952;2023-02-08T00:46:29;15.45;;;7.15;;
37151;SDS011;23046;50.112;8.952;2023-02-08T00:46:39;13.97;;;7.17;;
37151;SDS011;23046;50.112;8.952;2023-02-08T00:46:49;14.30;;;7.13;;
37151;SDS011;23046;50.112;8.952;2023-02-08T00:47:00;15.20;;;7.35;;
37151;SDS011;23046;50.112;8.952;2023-02-08T00:47:11;16.88;;;7.55;;
37151;SDS011;23046;50.112;8.952;2023-02-08T00:47:22;16.73;;;7.50;;
37151;SDS011;23046;50.112;8.952;2023-02-08T00:47:32;16.98;;;7.40;;
37151;SDS011;23046;50.112;8.952;2023-02-08T00:47:43;17.20;;;7.70;;
37151;SDS011;23046;50.112;8.952;2023-02-08T00:47:53;16.27;;;7.60;;
37151;SDS011;23046;50.112;8.952;2023-02-08T00:48:04;15.68;;;7.72;;
37151;SDS011;23046;50.112;8.952;2023-02-08T00:48:14;14.13;;;7.27;;
37151;SDS011;23046;50.112;8.952;2023-02-08T00:48:25;15.13;;;7.23;;
37151;SDS011;23046;50.112;8.952;2023-02-08T00:48:35;13.85;;;6.95;;
37151;SDS011;23046;50.112;8.952;2023-02-08T00:48:45;12.87;;;6.80;;
37151;SDS011;23046;50.112;8.952;2023-02-08T00:48:55;11.93;;;6.70;;
37151;SDS011;23046;50.112;8.952;2023-02-08T00:49:06;12.77;;;6.77;;
37151;SDS011;23046;50.112;8.952;2023-02-08T00:49:16;14.23;;;6.90;;
37151;SDS011;23046;50.112;8.952;2023-02-08T00:49:28;15.97;;;7.20;;
37151;SDS011;23046;50.112;8.952;2023-02-08T00:49:38;15.52;;;7.22;;
37151;SDS011;23046;50.112;8.952;2023-02-08T00:49:48;14.13;;;7.10;;
37151;SDS011;23046;50.112;8.952;2023-02-08T00:49:58;13.83;;;6.83;;
37151;SDS011;23046;50.112;8.952;2023-02-08T00:50:09;14.90;;;6.80;;
37151;SDS011;23046;50.112;8.952;2023-02-08T00:50:19;16.30;;;7.25;;
37151;SDS011;23046;50.112;8.952;2023-02-08T00:50:30;15.43;;;7.40;;
37151;SDS011;23046;50.112;8.952;2023-02-08T00:50:40;14.98;;;7.30;;
37151;SDS011;23046;50.112;8.952;2023-02-08T00:51:00;14.33;;;7.30;;
37151;SDS011;23046;50.112;8.952;2023-02-08T00:51:11;16.00;;;7.60;;
37151;SDS011;23046;50.112;8.952;2023-02-08T00:51:22;15.00;;;7.18;;
37151;SDS011;23046;50.112;8.952;2023-02-08T00:51:33;14.53;;;7.03;;
37151;SDS011;23046;50.112;8.952;2023-02-08T00:51:43;15.90;;;6.95;;
37151;SDS011;23046;50.112;8.952;2023-02-08T00:51:54;18.75;;;7.35;;
37151;SDS011;23046;50.112;8.952;2023-02-08T00:52:05;18.53;;;7.17;;
37151;SDS011;23046;50.112;8.952;2023-02-08T00:52:15;18.23;;;7.03;;
37151;SDS011;23046;50.112;8.952;2023-02-08T00:52:27;15.88;;;6.88;;
37151;SDS011;23046;50.112;8.952;2023-02-08T00:52:37;15.00;;;6.77;;
37151;SDS011;23046;50.112;8.952;2023-02-08T00:52:48;14.33;;;6.73;;
37151;SDS011;23046;50.112;8.952;2023-02-08T00:52:58;14.60;;;6.87;;
37151;SDS011;23046;50.112;8.952;2023-02-08T00:53:08;14.02;;;6.88;;
37151;SDS011;23046;50.112;8.952;2023-02-08T00:53:19;12.23;;;6.47;;
37151;SDS011;23046;50.112;8.952;2023-02-08T00:53:29;12.00;;;6.40;;
37151;SDS011;23046;50.112;8.952;2023-02-08T00:53:40;12.75;;;6.55;;
37151;SDS011;23046;50.112;8.952;2023-02-08T00:53:50;13.65;;;6.50;;
37151;SDS011;23046;50.112;8.952;2023-02-08T00:54:00;14.17;;;6.50;;
37151;SDS011;23046;50.112;8.952;2023-02-08T00:54:17;12.83;;;6.30;;
37151;SDS011;23046;50.112;8.952;2023-02-08T00:54:27;13.48;;;6.63;;
37151;SDS011;23046;50.112;8.952;2023-02-08T00:54:38;13.97;;;6.67;;
37151;SDS011;23046;50.112;8.952;2023-02-08T00:54:49;13.90;;;6.80;;
37151;SDS011;23046;50.112;8.952;2023-02-08T00:54:59;14.60;;;6.97;;
37151;SDS011;23046;50.112;8.952;2023-02-08T00:55:09;14.47;;;7.00;;
37151;SDS011;23046;50.112;8.952;2023-02-08T00:55:20;13.90;;;6.80;;
37151;SDS011;23046;50.112;8.952;2023-02-08T00:55:30;11.95;;;6.60;;
37151;SDS011;23046;50.112;8.952;2023-02-08T00:55:40;12.60;;;6.73;;
37151;SDS011;23046;50.112;8.952;2023-02-08T00:55:51;12.57;;;6.93;;
37151;SDS011;23046;50.112;8.952;2023-02-08T00:56:01;12.95;;;6.85;;
37151;SDS011;23046;50.112;8.952;2023-02-08T00:56:13;11.50;;;6.33;;
37151;SDS011;23046;50.112;8.952;2023-02-08T00:56:23;12.65;;;6.25;;
37151;SDS011;23046;50.112;8.952;2023-02-08T00:56:35;13.27;;;6.47;;
37151;SDS011;23046;50.112;8.952;2023-02-08T00:56:45;15.43;;;6.77;;
37151;SDS011;23046;50.112;8.952;2023-02-08T00:56:55;15.88;;;6.78;;
37151;SDS011;23046;50.112;8.952;2023-02-08T00:57:06;15.27;;;6.80;;
37151;SDS011;23046;50.112;8.952;2023-02-08T00:57:16;14.87;;;7.10;;
37151;SDS011;23046;50.112;8.952;2023-02-08T00:57:26;13.40;;;6.90;;
37151;SDS011;23046;50.112;8.952;2023-02-08T00:57:36;12.30;;;6.80;;
37151;SDS011;23046;50.112;8.952;2023-02-08T00:57:47;10.97;;;6.33;;
37151;SDS011;23046;50.112;8.952;2023-02-08T00:57:57;12.18;;;6.30;;
37151;SDS011;23046;50.112;8.952;2023-02-08T00:58:07;11.93;;;6.17;;
37151;SDS011;23046;50.112;8.952;2023-02-08T00:58:17;12.00;;;6.17;;
37151;SDS011;23046;50.112;8.952;2023-02-08T00:58:28;11.87;;;6.50;;
37151;SDS011;23046;50.112;8.952;2023-02-08T00:58:38;12.13;;;6.80;;
37151;SDS011;23046;50.112;8.952;2023-02-08T00:58:49;12.97;;;7.00;;
37151;SDS011;23046;50.112;8.952;2023-02-08T00:59:00;11.90;;;6.68;;
37151;SDS011;23046;50.112;8.952;2023-02-08T00:59:10;11.97;;;6.47;;
37151;SDS011;23046;50.112;8.952;2023-02-08T00:59:21;11.30;;;6.33;;
37151;SDS011;23046;50.112;8.952;2023-02-08T00:59:31;12.30;;;6.37;;
37151;SDS011;23046;50.112;8.952;2023-02-08T00:59:41;13.48;;;6.68;;
37151;SDS011;23046;50.112;8.952;2023-02-08T00:59:52;13.10;;;6.60;;
37151;SDS011;23046;50.112;8.952;2023-02-08T01:00:03;12.70;;;6.63;;
37151;SDS011;23046;50.112;8.952;2023-02-08T01:00:14;10.75;;;6.40;;
37151;SDS011;23046;50.112;8.952;2023-02-08T01:00:24;10.57;;;6.20;;
37151;SDS011;23046;50.112;8.952;2023-02-08T01:00:34;9.60;;;6.07;;
37151;SDS011;23046;50.112;8.952;2023-02-08T01:00:44;9.63;;;6.00;;
37151;SDS011;23046;50.112;8.952;2023-02-08T01:00:54;9.27;;;6.07;;
37151;SDS011;23046;50.112;8.952;2023-02-08T01:01:05;8.93;;;5.90;;
37151;SDS011;23046;50.112;8.952;2023-02-08T01:01:16;9.05;;;5.70;;
37151;SDS011;23046;50.112;8.952;2023-02-08T01:01:26;10.33;;;5.90;;
37151;SDS011;23046;50.112;8.952;2023-02-08T01:01:36;11.00;;;5.93;;
37151;SDS011;23046;50.112;8.952;2023-02-08T01:01:47;10.32;;;6.10;;
37151;SDS011;23046;50.112;8.952;2023-02-08T01:01:57;10.40;;;6.03;;
37151;SDS011;23046;50.112;8.952;2023-02-08T01:02:07;9.98;;;6.30;;
37151;SDS011;23046;50.112;8.952;2023-02-08T01:02:18;10.73;;;6.50;;